Time;durP1;ratioP1;P1;durP2;ratioP2;P2;SDS_P1;SDS_P2;PMS_P1;PMS_P2;Temp;Humidity;BMP_temperature;BMP_pressure;BME280_temperature;BME280_humidity;BME280_pressure;Samples;Min_cycle;Max_cycle;Signal;HPM_P1;HPM_P2
2021/12/17 00:00:19;;;;;;;133.50;79.82;;;5.70;99.90;;;;;;5103624;28;20506;-76
2021/12/17 00:03:15;;;;;;;135.50;79.47;;;5.70;99.90;;;;;;5102496;28;20044;-76
2021/12/17 00:05:51;;;;;;;154.23;85.25;;;5.70;99.90;;;;;;5100820;28;20048;-76
2021/12/17 00:08:19;;;;;;;165.57;93.38;;;5.70;99.90;;;;;;5101908;28;20044;-76
2021/12/17 00:10:48;;;;;;;172.77;95.25;;;5.70;99.90;;;;;;5091662;28;20055;-76
2021/12/17 00:13:17;;;;;;;171.70;95.95;;;5.70;1.00;;;;;;5084226;28;20055;-77
2021/12/17 00:15:45;;;;;;;191.75;106.72;;;5.70;1.00;;;;;;5083702;28;20449;-76
2021/12/17 00:18:20;;;;;;;153.32;87.88;;;5.60;1.00;;;;;;5102473;28;20048;-77
2021/12/17 00:40:14;;;;;;;177.77;98.68;;;5.60;1.00;;;;;;5104345;28;20051;-76
2021/12/17 00:48:51;;;;;;;;;;;5.60;1.00;;;;;;5098812;28;20048;-80
2021/12/17 00:51:56;;;;;;;210.20;110.88;;;5.50;1.00;;;;;;5082255;28;19927;-80
2021/12/17 00:54:32;;;;;;;195.50;107.22;;;5.50;1.00;;;;;;5077705;28;20118;-80
2021/12/17 00:57:01;;;;;;;206.13;115.15;;;5.60;1.00;;;;;;5091949;28;20355;-79
2021/12/17 00:59:29;;;;;;;184.82;104.47;;;5.60;1.00;;;;;;5094762;28;20540;-79
2021/12/17 01:01:59;;;;;;;190.20;106.88;;;5.60;1.00;;;;;;5094322;28;20406;-80
2021/12/17 01:04:27;;;;;;;190.02;107.82;;;5.60;1.00;;;;;;5093708;28;20052;-81
2021/12/17 01:06:56;;;;;;;199.68;111.57;;;5.60;1.00;;;;;;5095134;28;20048;-80
2021/12/17 01:09:26;;;;;;;176.35;99.85;;;5.60;1.00;;;;;;5094803;28;20043;-80
2021/12/17 01:11:55;;;;;;;161.43;89.63;;;5.60;1.00;;;;;;5093039;28;20085;-80
2021/12/17 01:14:26;;;;;;;152.25;86.13;;;5.60;1.00;;;;;;5095170;28;20044;-81
2021/12/17 01:17:19;;;;;;;142.07;79.55;;;5.60;99.00;;;;;;5093222;28;20040;-80
2021/12/17 01:20:24;;;;;;;120.28;69.07;;;5.60;99.90;;;;;;5093478;28;20048;-79
2021/12/17 01:23:08;;;;;;;116.13;67.20;;;5.70;1.00;;;;;;5073274;28;20056;-80
2021/12/17 01:41:03;;;;;;;106.80;60.40;;;5.90;1.00;;;;;;5090003;28;19920;-81
2021/12/17 01:43:36;;;;;;;101.45;59.38;;;5.90;1.00;;;;;;5092022;28;20118;-81
2021/12/17 01:46:05;;;;;;;98.18;58.30;;;5.80;1.00;;;;;;5098608;28;20068;-82
2021/12/17 01:48:50;;;;;;;95.75;56.47;;;5.90;55.50;;;;;;5100062;28;20052;-80
2021/12/17 01:59:46;;;;;;;86.85;51.35;;;5.80;99.90;;;;;;5019052;28;20448;-80
2021/12/17 02:02:15;;;;;;;87.80;52.58;;;5.80;99.90;;;;;;5057410;28;20044;-79
2021/12/17 02:04:44;;;;;;;82.47;51.33;;;5.80;1.00;;;;;;5091087;28;20063;-80
2021/12/17 02:07:11;;;;;;;90.13;53.90;;;5.90;1.00;;;;;;5092392;28;20506;-80
2021/12/17 02:12:38;;;;;;;83.18;50.60;;;5.90;1.00;;;;;;5092092;28;20048;-80
2021/12/17 02:21:23;;;;;;;82.53;51.20;;;5.90;1.00;;;;;;5092835;28;20043;-80
2021/12/17 02:30:05;;;;;;;100.63;58.08;;;5.80;1.00;;;;;;5072176;28;20528;-81
2021/12/17 02:32:35;;;;;;;101.95;60.17;;;5.80;1.00;;;;;;5090916;28;20040;-80
2021/12/17 02:37:48;;;;;;;106.45;62.97;;;5.80;1.00;;;;;;5090681;28;20499;-80
2021/12/17 02:42:26;;;;;;;114.78;64.43;;;5.70;1.00;;;;;;5094457;28;20048;-80
2021/12/17 02:46:01;;;;;;;107.00;63.65;;;5.70;1.00;;;;;;5117658;28;20042;-80
2021/12/17 02:48:30;;;;;;;101.72;59.97;;;5.60;1.00;;;;;;5111896;28;20020;-81
2021/12/17 02:50:59;;;;;;;91.03;56.60;;;5.70;1.00;;;;;;5100094;28;20072;-81
2021/12/17 02:53:30;;;;;;;94.68;56.75;;;5.70;35.60;;;;;;5072576;28;20060;-79
2021/12/17 02:55:59;;;;;;;95.60;57.00;;;5.80;99.90;;;;;;5072134;28;20070;-80
2021/12/17 02:58:28;;;;;;;92.20;56.60;;;5.90;99.90;;;;;;5086870;28;20101;-80
2021/12/17 03:00:57;;;;;;;94.43;54.35;;;5.90;99.90;;;;;;5100280;28;20119;-77
2021/12/17 03:03:26;;;;;;;88.72;52.83;;;5.90;99.90;;;;;;5116293;28;20475;-80
2021/12/17 03:05:54;;;;;;;83.85;51.75;;;5.90;1.00;;;;;;5107331;28;20503;-81
2021/12/17 03:08:23;;;;;;;88.63;55.47;;;6.00;1.00;;;;;;5093122;28;20117;-81
2021/12/17 03:10:52;;;;;;;100.93;59.38;;;6.00;1.00;;;;;;5094830;28;20139;-80
2021/12/17 03:13:22;;;;;;;104.15;61.72;;;6.00;1.00;;;;;;5099458;28;20071;-80
2021/12/17 03:15:54;;;;;;;108.20;61.55;;;6.00;1.00;;;;;;5097429;28;20052;-76
2021/12/17 03:24:00;;;;;;;96.03;56.13;;;5.90;99.90;;;;;;5088407;28;20048;-77
2021/12/17 03:26:32;;;;;;;86.28;52.42;;;5.90;99.90;;;;;;5087093;28;20102;-76
2021/12/17 03:29:03;;;;;;;82.28;50.33;;;5.90;99.90;;;;;;5087235;28;20120;-76
2021/12/17 03:31:31;;;;;;;86.13;50.85;;;5.80;99.90;;;;;;5101075;28;20055;-76
2021/12/17 03:34:14;;;;;;;74.28;47.55;;;5.80;1.00;;;;;;5104403;28;20036;-77
2021/12/17 03:36:42;;;;;;;78.22;48.33;;;5.80;1.00;;;;;;5106075;28;20040;-76
2021/12/17 03:39:09;;;;;;;76.70;47.30;;;5.80;1.00;;;;;;5106933;28;20541;-77
2021/12/17 03:41:38;;;;;;;76.13;47.97;;;5.80;38.60;;;;;;5106193;28;20143;-77
2021/12/17 03:44:09;;;;;;;81.28;48.58;;;5.80;1.00;;;;;;5106674;28;20036;-77
2021/12/17 03:47:15;;;;;;;82.55;50.70;;;5.80;1.00;;;;;;5084209;28;20048;-79
2021/12/17 03:50:00;;;;;;;82.55;51.30;;;5.80;36.90;;;;;;5084292;28;20451;-76
2021/12/17 03:52:27;;;;;;;90.40;53.08;;;5.80;99.90;;;;;;5094479;28;20047;-80
2021/12/17 03:54:56;;;;;;;87.60;50.63;;;5.80;99.90;;;;;;5102829;28;20905;-79
2021/12/17 03:57:27;;;;;;;86.20;50.50;;;5.80;1.00;;;;;;5102975;28;20044;-77
2021/12/17 03:59:55;;;;;;;83.57;50.10;;;5.80;1.00;;;;;;5102326;28;20048;-80
2021/12/17 04:02:26;;;;;;;74.53;46.58;;;5.80;1.00;;;;;;5099361;28;20147;-78
2021/12/17 04:04:54;;;;;;;75.40;45.85;;;5.80;1.00;;;;;;5089114;28;20726;-77
2021/12/17 04:07:40;;;;;;;81.68;48.05;;;5.70;1.00;;;;;;5088833;28;20047;-78
2021/12/17 04:10:49;;;;;;;74.63;44.65;;;5.80;1.00;;;;;;5061250;28;20447;-77
2021/12/17 04:13:29;;;;;;;77.45;46.72;;;5.80;1.00;;;;;;5079490;28;20051;-79
2021/12/17 04:16:06;;;;;;;78.07;46.38;;;5.70;1.00;;;;;;5100799;28;20050;-78
2021/12/17 04:18:34;;;;;;;78.95;47.42;;;5.60;99.90;;;;;;5102286;28;20065;-78
2021/12/17 04:21:05;;;;;;;73.03;46.33;;;5.60;1.00;;;;;;5101788;28;20040;-78
2021/12/17 04:23:33;;;;;;;67.00;44.30;;;5.70;1.00;;;;;;5099775;28;20139;-78
2021/12/17 04:26:00;;;;;;;71.32;43.97;;;5.70;1.00;;;;;;5102055;28;20051;-78
2021/12/17 04:28:29;;;;;;;68.93;41.38;;;5.70;1.00;;;;;;5102947;28;20044;-78
2021/12/17 04:30:59;;;;;;;65.68;41.83;;;5.70;99.90;;;;;;5101494;28;20108;-78
2021/12/17 04:33:29;;;;;;;67.95;42.08;;;5.70;99.90;;;;;;5101570;28;20040;-78
2021/12/17 04:35:57;;;;;;;69.32;43.58;;;5.70;1.00;;;;;;5102793;28;20044;-77
2021/12/17 04:38:26;;;;;;;63.72;42.67;;;5.70;72.30;;;;;;5101887;28;20510;-77
2021/12/17 04:40:55;;;;;;;64.03;40.67;;;5.70;1.00;;;;;;5101058;28;20044;-77
2021/12/17 04:43:36;;;;;;;61.38;39.45;;;5.70;1.00;;;;;;5113561;22;20461;-82
2021/12/17 04:46:20;;;;;;;64.15;41.30;;;5.70;1.00;;;;;;5089657;28;20068;-83
2021/12/17 04:57:27;;;;;;;67.82;41.45;;;5.60;1.00;;;;;;5081761;28;20510;-81
2021/12/17 04:59:58;;;;;;;68.03;45.55;;;5.70;1.00;;;;;;5079124;28;20044;-82
2021/12/17 05:02:29;;;;;;;70.40;44.30;;;5.60;99.90;;;;;;5078764;28;20111;-80
2021/12/17 05:05:06;;;;;;;72.90;45.78;;;5.60;99.90;;;;;;5079350;28;20048;-80
2021/12/17 05:07:39;;;;;;;72.18;45.00;;;5.60;99.90;;;;;;5079354;28;20051;-81
2021/12/17 05:10:16;;;;;;;72.03;43.83;;;5.60;99.90;;;;;;5078964;28;20048;-81
2021/12/17 05:18:20;;;;;;;74.25;46.13;;;5.60;1.00;;;;;;5081182;28;20047;-81
2021/12/17 05:20:59;;;;;;;71.20;46.72;;;5.60;99.90;;;;;;5092106;28;20177;-79
2021/12/17 05:23:31;;;;;;;68.20;45.03;;;5.60;99.90;;;;;;5089367;28;20048;-81
2021/12/17 05:26:01;;;;;;;70.65;44.70;;;5.70;99.90;;;;;;5082852;28;20041;-81
2021/12/17 05:28:35;;;;;;;73.35;46.10;;;5.70;1.00;;;;;;5079549;28;20037;-78
2021/12/17 05:31:05;;;;;;;68.15;42.35;;;5.70;1.00;;;;;;5078942;28;20052;-81
2021/12/17 05:33:39;;;;;;;65.00;41.42;;;5.60;99.90;;;;;;5077928;28;20090;-81
2021/12/17 05:36:07;;;;;;;59.40;39.30;;;5.70;1.00;;;;;;5078941;28;20048;-80
2021/12/17 05:38:37;;;;;;;59.00;37.75;;;5.70;1.00;;;;;;5078504;28;20478;-82
2021/12/17 05:41:05;;;;;;;99.78;62.00;;;5.70;1.00;;;;;;5078809;28;20045;-80
2021/12/17 05:43:56;;;;;;;105.78;62.45;;;5.80;1.00;;;;;;5078432;28;20083;-82
2021/12/17 05:46:37;;;;;;;120.55;75.68;;;5.70;99.90;;;;;;5079125;28;20119;-82
2021/12/17 05:49:07;;;;;;;155.43;90.90;;;5.70;99.90;;;;;;5078712;28;20507;-82
2021/12/17 05:51:34;;;;;;;135.60;77.72;;;5.70;1.00;;;;;;5078936;28;20112;-84
2021/12/17 05:54:02;;;;;;;98.35;59.45;;;5.70;1.00;;;;;;5079991;28;20040;-81
2021/12/17 05:56:29;;;;;;;76.85;47.13;;;5.70;1.00;;;;;;5080612;28;20059;-83
2021/12/17 05:58:59;;;;;;;81.82;51.08;;;5.80;99.90;;;;;;5079478;28;20440;-82
2021/12/17 06:01:27;;;;;;;96.90;59.15;;;5.80;99.90;;;;;;5079601;28;20452;-82
2021/12/17 06:03:56;;;;;;;107.57;64.45;;;5.80;1.00;;;;;;5079787;28;20078;-80
2021/12/17 06:06:32;;;;;;;98.75;60.95;;;5.80;1.00;;;;;;5069793;28;20090;-83
2021/12/17 06:09:05;;;;;;;100.97;60.50;;;5.80;1.00;;;;;;5072640;28;20037;-81
2021/12/17 06:11:34;;;;;;;102.20;62.92;;;5.90;1.00;;;;;;5087995;28;20040;-81
2021/12/17 06:14:03;;;;;;;128.88;79.32;;;5.80;1.00;;;;;;5092431;28;20029;-79
2021/12/17 06:16:35;;;;;;;108.28;68.03;;;5.80;1.00;;;;;;5085165;28;20071;-79
2021/12/17 06:19:09;;;;;;;125.97;75.38;;;5.80;1.00;;;;;;5082230;28;20058;-79
2021/12/17 06:21:38;;;;;;;101.90;60.83;;;5.80;99.30;;;;;;5086783;28;20075;-78
2021/12/17 06:24:07;;;;;;;159.70;91.32;;;5.80;99.90;;;;;;5070312;28;20172;-79
2021/12/17 06:26:36;;;;;;;113.55;68.70;;;5.80;99.90;;;;;;5076075;28;20048;-81
2021/12/17 06:29:06;;;;;;;107.05;66.70;;;5.80;99.90;;;;;;5067958;28;20132;-82
2021/12/17 06:31:37;;;;;;;94.22;57.42;;;5.80;1.00;;;;;;5078672;28;20079;-82
2021/12/17 06:34:05;;;;;;;78.22;49.20;;;5.80;1.00;;;;;;5077551;28;20059;-81
2021/12/17 06:36:35;;;;;;;72.78;46.47;;;5.90;1.00;;;;;;5060470;28;20091;-82
2021/12/17 06:39:04;;;;;;;73.05;44.90;;;5.90;99.90;;;;;;5071560;28;20513;-81
2021/12/17 06:41:38;;;;;;;71.67;42.90;;;6.10;99.90;;;;;;5076006;28;20048;-79
2021/12/17 06:44:10;;;;;;;72.03;43.13;;;6.10;99.90;;;;;;5076874;28;20343;-81
2021/12/17 06:46:52;;;;;;;69.60;42.83;;;6.10;1.00;;;;;;5081446;28;20059;-81
2021/12/17 06:49:26;;;;;;;68.30;43.38;;;6.10;1.00;;;;;;5081761;28;20048;-79
2021/12/17 06:55:06;;;;;;;83.00;51.83;;;6.20;99.90;;;;;;5078956;28;20047;-82
2021/12/17 06:58:35;;;;;;;85.28;51.85;;;6.20;99.90;;;;;;5075651;28;20059;-83
2021/12/17 07:01:18;;;;;;;79.28;49.50;;;6.20;99.90;;;;;;5079536;28;20521;-83
2021/12/17 07:10:28;;;;;;;88.55;56.38;;;6.20;99.90;;;;;;5088951;28;20049;-82
2021/12/17 07:21:36;;;;;;;74.03;49.55;;;6.50;1.00;;;;;;5034751;28;20052;-84
2021/12/17 07:32:52;;;;;;;58.42;38.88;;;6.50;1.00;;;;;;5081504;28;20118;-81
2021/12/17 07:40:56;;;;;;;62.22;43.10;;;6.70;87.90;;;;;;5080497;28;20108;-82
2021/12/17 07:43:37;;;;;;;66.85;46.95;;;6.80;1.00;;;;;;5081584;28;20110;-84
2021/12/17 07:46:13;;;;;;;66.72;46.08;;;6.80;1.00;;;;;;5079756;28;20044;-82
2021/12/17 07:48:41;;;;;;;68.13;45.03;;;6.90;1.00;;;;;;5081351;28;20048;-81
2021/12/17 07:51:14;;;;;;;61.78;42.55;;;6.90;1.00;;;;;;5080023;28;20444;-83
2021/12/17 07:54:02;;;;;;;61.15;39.47;;;6.90;1.00;;;;;;5078968;28;20059;-81
2021/12/17 07:56:37;;;;;;;54.95;36.35;;;6.90;99.90;;;;;;5077809;28;20045;-83
2021/12/17 07:59:15;;;;;;;57.42;37.15;;;6.90;99.90;;;;;;5083477;28;20048;-83
2021/12/17 08:01:43;;;;;;;59.70;38.83;;;7.00;99.90;;;;;;5092182;28;20045;-79
2021/12/17 08:04:12;;;;;;;56.42;36.90;;;7.10;99.90;;;;;;5088228;28;20041;-82
2021/12/17 08:06:57;;;;;;;50.83;34.22;;;7.10;99.90;;;;;;5078635;28;20483;-81
2021/12/17 08:09:29;;;;;;;53.60;36.67;;;7.10;1.00;;;;;;5077597;28;20059;-80
2021/12/17 08:11:58;;;;;;;75.63;38.38;;;7.00;1.00;;;;;;5074015;28;20047;-82
2021/12/17 08:14:54;;;;;;;56.15;37.35;;;6.90;99.90;;;;;;5070835;28;20120;-81
2021/12/17 08:17:43;;;;;;;54.40;34.65;;;7.10;30.90;;;;;;5070886;28;20051;-81
2021/12/17 08:26:05;;;;;;;57.10;36.30;;;7.70;1.00;;;;;;5068560;28;20041;-82
2021/12/17 08:29:12;;;;;;;49.45;33.63;;;7.70;1.00;;;;;;5085609;28;20117;-82
2021/12/17 08:31:41;;;;;;;46.67;30.40;;;7.70;1.00;;;;;;5077704;28;20059;-82
2021/12/17 08:34:12;;;;;;;40.15;28.45;;;7.70;1.00;;;;;;5078159;28;20045;-82
2021/12/17 08:36:40;;;;;;;40.88;27.67;;;7.80;1.00;;;;;;5076218;28;20571;-81
2021/12/17 08:39:07;;;;;;;38.70;26.25;;;7.80;1.00;;;;;;5077306;28;20048;-83
2021/12/17 08:41:51;;;;;;;41.30;27.38;;;7.90;99.90;;;;;;5078736;28;20048;-82
2021/12/17 08:44:19;;;;;;;35.78;27.02;;;7.90;99.90;;;;;;5077261;28;20045;-81
2021/12/17 08:47:09;;;;;;;41.53;28.63;;;7.90;99.90;;;;;;5078625;28;20051;-79
2021/12/17 08:49:40;;;;;;;72.60;33.88;;;7.80;99.90;;;;;;5076206;28;20052;-81
2021/12/17 08:52:19;;;;;;;41.08;28.23;;;7.80;99.90;;;;;;5078301;28;20040;-82
2021/12/17 08:54:47;;;;;;;46.65;30.92;;;7.80;99.90;;;;;;5073573;28;20045;-81
2021/12/17 08:57:14;;;;;;;335.10;58.70;;;7.90;99.90;;;;;;5074789;28;20139;-82
2021/12/17 08:59:42;;;;;;;42.13;29.52;;;7.90;99.90;;;;;;5079323;28;20044;-80
2021/12/17 09:02:14;;;;;;;45.45;30.08;;;7.90;99.90;;;;;;5076398;28;20052;-81
2021/12/17 09:04:49;;;;;;;50.75;33.30;;;8.00;99.90;;;;;;5075171;28;20075;-81
2021/12/17 09:07:20;;;;;;;41.75;29.95;;;8.10;99.90;;;;;;5069692;28;20074;-82
2021/12/17 09:09:49;;;;;;;49.58;32.55;;;8.10;99.90;;;;;;5076315;28;20048;-82
2021/12/17 09:12:31;;;;;;;49.22;33.30;;;8.10;99.90;;;;;;5076259;28;20079;-81
2021/12/17 09:14:59;;;;;;;42.90;29.52;;;8.20;99.90;;;;;;5075894;28;20102;-80
2021/12/17 09:17:47;;;;;;;41.78;26.67;;;8.20;99.90;;;;;;5078574;28;20051;-82
2021/12/17 09:20:17;;;;;;;40.58;27.10;;;8.20;13.30;;;;;;5076279;28;20495;-83
2021/12/17 09:22:46;;;;;;;44.95;28.42;;;8.10;25.90;;;;;;5075488;28;20048;-81
2021/12/17 09:25:17;;;;;;;54.92;35.33;;;8.20;1.00;;;;;;5076156;28;20053;-83
2021/12/17 09:28:07;;;;;;;47.42;30.35;;;8.20;39.10;;;;;;5076236;28;20119;-84
2021/12/17 09:30:49;;;;;;;46.92;31.02;;;8.30;63.70;;;;;;5077245;28;20045;-82
2021/12/17 09:33:18;;;;;;;47.45;31.70;;;8.30;3.40;;;;;;5077040;28;20048;-83
2021/12/17 09:35:45;;;;;;;49.17;32.00;;;8.30;1.00;;;;;;5077994;28;20060;-83
2021/12/17 09:38:13;;;;;;;57.47;35.17;;;8.20;1.00;;;;;;5078935;28;20042;-84
2021/12/17 09:40:40;;;;;;;51.45;33.08;;;8.20;1.00;;;;;;5078386;28;20044;-83
2021/12/17 09:43:08;;;;;;;48.25;32.10;;;8.30;1.00;;;;;;5083215;28;20040;-81
2021/12/17 09:45:35;;;;;;;47.85;30.45;;;8.40;1.00;;;;;;5089344;28;20041;-80
2021/12/17 09:48:04;;;;;;;48.85;33.75;;;8.40;1.00;;;;;;5085311;28;20076;-83
2021/12/17 09:50:33;;;;;;;49.25;33.25;;;8.40;1.00;;;;;;5077688;28;20097;-83
2021/12/17 09:53:01;;;;;;;42.70;27.77;;;8.50;1.00;;;;;;5077199;28;20559;-81
2021/12/17 09:55:29;;;;;;;38.97;26.27;;;8.40;1.00;;;;;;5073120;28;20063;-83
2021/12/17 09:57:56;;;;;;;43.88;29.25;;;8.40;1.00;;;;;;5068803;28;20053;-82
2021/12/17 10:00:27;;;;;;;35.67;24.08;;;8.40;1.00;;;;;;5074169;28;20075;-82
2021/12/17 10:02:55;;;;;;;41.50;26.70;;;8.30;1.00;;;;;;5063390;28;20044;-83
2021/12/17 10:05:25;;;;;;;32.03;21.67;;;8.30;1.00;;;;;;5079387;28;20047;-83
2021/12/17 10:07:56;;;;;;;29.30;21.85;;;8.30;1.00;;;;;;5076888;28;20514;-83
2021/12/17 10:10:33;;;;;;;32.05;21.58;;;8.30;1.00;;;;;;5076116;28;20051;-83
2021/12/17 10:13:12;;;;;;;32.13;21.85;;;8.40;1.00;;;;;;5076759;28;20048;-83
2021/12/17 10:15:40;;;;;;;30.48;21.67;;;8.60;1.00;;;;;;5077216;28;20047;-82
2021/12/17 10:18:08;;;;;;;33.58;21.90;;;8.70;1.00;;;;;;5077116;28;20090;-84
2021/12/17 10:20:41;;;;;;;33.35;23.17;;;8.80;1.00;;;;;;5090371;28;20111;-81
2021/12/17 10:23:12;;;;;;;33.42;20.83;;;8.70;1.00;;;;;;5094099;28;20104;-80
2021/12/17 10:25:44;;;;;;;26.70;19.27;;;8.60;1.00;;;;;;5093701;28;20058;-83
2021/12/17 10:28:13;;;;;;;28.23;19.48;;;8.40;1.00;;;;;;5076738;28;20040;-83
2021/12/17 10:30:44;;;;;;;29.50;19.65;;;8.40;1.00;;;;;;5077036;28;20143;-84
2021/12/17 10:33:15;;;;;;;31.65;20.88;;;8.40;1.00;;;;;;5075323;28;20086;-83
2021/12/17 10:35:45;;;;;;;36.33;20.60;;;8.20;1.00;;;;;;5074638;28;20067;-84
2021/12/17 10:38:17;;;;;;;35.75;21.15;;;8.20;1.00;;;;;;5076785;28;20495;-83
2021/12/17 10:40:49;;;;;;;33.80;20.88;;;8.20;1.00;;;;;;5077017;28;20115;-84
2021/12/17 10:43:23;;;;;;;28.85;19.73;;;8.20;1.00;;;;;;5076956;28;20098;-79
2021/12/17 10:46:04;;;;;;;28.42;18.52;;;8.20;1.00;;;;;;5079121;28;20068;-78
2021/12/17 10:48:36;;;;;;;28.95;20.05;;;8.20;1.00;;;;;;5079550;28;20071;-80
2021/12/17 10:51:30;;;;;;;32.58;20.88;;;8.20;1.00;;;;;;5076647;28;20098;-80
2021/12/17 10:54:01;;;;;;;32.08;20.40;;;8.30;1.00;;;;;;5077267;28;20044;-82
2021/12/17 10:56:33;;;;;;;32.17;20.15;;;8.30;1.00;;;;;;5076964;28;20072;-80
2021/12/17 10:59:04;;;;;;;30.95;20.23;;;8.30;1.00;;;;;;5076858;28;20049;-80
2021/12/17 11:01:40;;;;;;;33.83;22.98;;;8.30;1.00;;;;;;5073691;28;20041;-78
2021/12/17 11:04:10;;;;;;;32.50;21.83;;;8.30;1.00;;;;;;5072355;28;20048;-79
2021/12/17 11:06:53;;;;;;;33.78;22.80;;;8.30;1.00;;;;;;5061327;28;20049;-82
2021/12/17 11:09:44;;;;;;;30.92;21.63;;;8.30;1.00;;;;;;5072028;28;20102;-78
2021/12/17 11:12:32;;;;;;;29.63;21.33;;;8.30;1.00;;;;;;5071242;28;20145;-80
2021/12/17 11:15:20;;;;;;;27.63;20.70;;;8.30;1.00;;;;;;5079862;28;20241;-81
2021/12/17 11:17:49;;;;;;;33.63;23.73;;;8.40;1.00;;;;;;5082758;28;20098;-81
2021/12/17 11:20:19;;;;;;;35.38;23.15;;;8.30;1.00;;;;;;5076477;28;20044;-81
2021/12/17 11:22:48;;;;;;;35.13;23.02;;;8.30;1.00;;;;;;5076675;28;20071;-79
2021/12/17 11:25:19;;;;;;;32.42;23.08;;;8.30;1.00;;;;;;5073507;28;20041;-80
2021/12/17 11:27:46;;;;;;;33.33;22.40;;;8.30;1.00;;;;;;5074041;28;20063;-80
2021/12/17 11:30:16;;;;;;;26.25;19.67;;;8.30;1.00;;;;;;5075904;28;20097;-78
2021/12/17 11:32:45;;;;;;;29.88;20.50;;;8.10;1.00;;;;;;5076979;28;20045;-79
2021/12/17 11:35:14;;;;;;;57.83;36.28;;;8.10;1.00;;;;;;5077909;28;20044;-79
2021/12/17 11:37:42;;;;;;;61.88;37.25;;;8.20;1.00;;;;;;5078507;28;20106;-79
2021/12/17 11:40:18;;;;;;;68.15;41.65;;;8.40;1.00;;;;;;5077086;28;20112;-80
2021/12/17 11:43:05;;;;;;;65.55;40.13;;;8.60;1.00;;;;;;5076401;28;20095;-77
2021/12/17 11:45:34;;;;;;;46.33;30.45;;;8.90;1.00;;;;;;5077712;28;20423;-80
2021/12/17 11:48:23;;;;;;;45.95;29.35;;;8.90;1.00;;;;;;5077733;28;20110;-78
2021/12/17 11:51:06;;;;;;;32.97;21.83;;;9.00;1.00;;;;;;5073872;28;20091;-80
2021/12/17 11:53:40;;;;;;;32.22;21.75;;;8.90;1.00;;;;;;5076710;28;20167;-79
2021/12/17 11:56:08;;;;;;;29.10;18.40;;;8.90;1.00;;;;;;5078736;28;20040;-80
2021/12/17 11:58:49;;;;;;;28.90;19.48;;;8.90;99.90;;;;;;5079787;28;20064;-80
2021/12/17 12:01:49;;;;;;;36.40;23.50;;;9.00;99.90;;;;;;5078390;28;20043;-79
2021/12/17 12:04:26;;;;;;;35.90;26.13;;;8.90;99.90;;;;;;5073453;28;20044;-79
2021/12/17 12:07:04;;;;;;;36.55;23.75;;;9.00;99.90;;;;;;5067307;28;20048;-79
2021/12/17 12:09:57;;;;;;;34.17;21.27;;;9.10;99.90;;;;;;5079444;28;20056;-80
2021/12/17 12:12:30;;;;;;;33.17;20.95;;;9.00;99.90;;;;;;5086913;28;20052;-78
2021/12/17 12:15:32;;;;;;;29.98;20.42;;;8.90;99.90;;;;;;5088436;28;20032;-79
2021/12/17 12:18:15;;;;;;;30.10;17.80;;;8.80;99.90;;;;;;5076466;28;20507;-80
2021/12/17 12:20:56;;;;;;;30.33;18.20;;;8.70;99.90;;;;;;5089308;28;20041;-78
2021/12/17 12:23:36;;;;;;;20.85;14.27;;;8.60;99.90;;;;;;5087668;28;20048;-80
2021/12/17 12:26:48;;;;;;;21.67;13.10;;;8.50;99.90;;;;;;5088777;28;20045;-79
2021/12/17 12:29:19;;;;;;;17.45;9.80;;;8.60;99.90;;;;;;5086298;28;20483;-78
2021/12/17 12:32:02;;;;;;;23.83;11.95;;;8.80;99.90;;;;;;5078887;28;20044;-82
2021/12/17 12:34:38;;;;;;;19.73;10.90;;;9.00;99.90;;;;;;5075773;28;20059;-81
2021/12/17 12:37:25;;;;;;;21.65;12.18;;;9.00;99.90;;;;;;5077271;28;20053;-80
2021/12/17 12:40:22;;;;;;;;;;;9.10;99.90;;;;;;5078590;28;20175;-81
2021/12/17 12:42:54;;;;;;;18.17;11.75;;;9.20;99.90;;;;;;5047956;28;19927;-81
2021/12/17 12:45:23;;;;;;;16.85;9.45;;;9.20;99.90;;;;;;5075222;28;20044;-79
2021/12/17 12:48:00;;;;;;;11.50;7.30;;;9.10;99.90;;;;;;5077969;28;20045;-80
2021/12/17 12:50:32;;;;;;;12.88;7.35;;;9.00;99.90;;;;;;5077326;28;20100;-79
2021/12/17 12:53:11;;;;;;;11.38;5.90;;;8.90;99.90;;;;;;5075389;28;20058;-80
2021/12/17 12:55:43;;;;;;;12.30;6.57;;;8.90;99.90;;;;;;5075735;28;20044;-79
2021/12/17 12:58:13;;;;;;;10.88;6.47;;;8.90;99.90;;;;;;5093048;28;20067;-81
2021/12/17 13:00:45;;;;;;;17.65;8.48;;;8.80;99.90;;;;;;5077677;28;20090;-80
2021/12/17 13:03:16;;;;;;;13.68;8.30;;;8.80;99.90;;;;;;5092967;28;20048;-82
2021/12/17 13:05:45;;;;;;;15.23;9.13;;;8.70;99.90;;;;;;5092234;28;20053;-79
2021/12/17 13:08:14;;;;;;;15.23;8.43;;;8.60;99.90;;;;;;5076695;28;20053;-80
2021/12/17 13:10:44;;;;;;;13.45;7.43;;;8.40;99.90;;;;;;5078194;28;20120;-81
2021/12/17 13:13:18;;;;;;;17.92;7.78;;;8.40;99.90;;;;;;5077316;28;20052;-81
2021/12/17 13:16:01;;;;;;;16.88;8.13;;;8.30;99.90;;;;;;5077544;28;20040;-81
2021/12/17 13:21:33;;;;;;;16.48;9.05;;;8.20;99.90;;;;;;5077378;28;20055;-80
2021/12/17 13:24:13;;;;;;;13.45;7.95;;;8.10;99.90;;;;;;5092789;28;20102;-80
2021/12/17 13:26:43;;;;;;;31.70;15.57;;;8.10;99.90;;;;;;5092787;28;20137;-80
2021/12/17 13:29:14;;;;;;;23.58;13.20;;;8.10;99.90;;;;;;5077531;28;20071;-79
2021/12/17 13:31:53;;;;;;;28.40;15.95;;;8.10;99.90;;;;;;5080147;28;20106;-79
2021/12/17 13:34:25;;;;;;;33.95;19.48;;;8.10;99.90;;;;;;5083519;28;20044;-81
2021/12/17 13:37:06;;;;;;;44.30;23.75;;;8.10;99.90;;;;;;5076282;28;20127;-81
2021/12/17 13:39:37;;;;;;;34.10;19.30;;;8.10;99.90;;;;;;5075371;28;20059;-77
2021/12/17 13:42:06;;;;;;;28.60;16.88;;;8.00;99.90;;;;;;5076751;28;20057;-80
2021/12/17 13:44:45;;;;;;;31.25;18.38;;;7.90;99.90;;;;;;5074678;28;20151;-80
2021/12/17 13:47:19;;;;;;;33.65;18.95;;;7.80;99.90;;;;;;5075840;28;20063;-80
2021/12/17 13:49:49;;;;;;;30.77;18.27;;;7.80;99.90;;;;;;5076977;28;20044;-78
2021/12/17 13:52:18;;;;;;;38.40;22.00;;;7.90;99.90;;;;;;5078446;28;20045;-78
2021/12/17 13:54:49;;;;;;;36.92;21.65;;;7.90;99.90;;;;;;5078328;28;20040;-79
2021/12/17 13:57:19;;;;;;;42.40;25.60;;;8.00;99.90;;;;;;5080267;28;20037;-80
2021/12/17 13:59:47;;;;;;;40.20;23.20;;;8.00;99.90;;;;;;5077997;28;20047;-79
2021/12/17 14:02:18;;;;;;;41.17;23.15;;;8.00;99.90;;;;;;5077462;28;20047;-78
2021/12/17 14:05:01;;;;;;;42.40;24.52;;;8.00;99.90;;;;;;5081449;28;20403;-78
2021/12/17 14:07:30;;;;;;;47.67;26.92;;;8.00;99.90;;;;;;5082505;28;20075;-78
2021/12/17 14:10:00;;;;;;;39.65;21.52;;;8.00;99.90;;;;;;5077355;28;20522;-79
2021/12/17 14:12:31;;;;;;;33.75;19.90;;;8.00;99.90;;;;;;5077900;28;20107;-79
2021/12/17 14:15:03;;;;;;;19.88;11.40;;;8.10;99.90;;;;;;5079213;28;20044;-80
2021/12/17 14:17:36;;;;;;;30.52;16.23;;;8.00;99.90;;;;;;5079183;28;20143;-78
2021/12/17 14:20:10;;;;;;;18.33;10.57;;;8.00;99.90;;;;;;5079256;28;20044;-79
2021/12/17 14:22:39;;;;;;;18.45;7.28;;;8.00;99.90;;;;;;5078011;28;20068;-79
2021/12/17 14:25:35;;;;;;;16.52;7.60;;;7.90;99.90;;;;;;5078297;28;20037;-80
2021/12/17 14:28:09;;;;;;;14.10;7.63;;;7.90;99.90;;;;;;5094728;28;20140;-79
2021/12/17 14:30:37;;;;;;;18.75;8.95;;;7.80;99.90;;;;;;5074803;28;20045;-78
2021/12/17 14:33:13;;;;;;;17.50;8.93;;;7.80;99.90;;;;;;5074819;28;20044;-78
2021/12/17 14:35:51;;;;;;;20.27;9.60;;;7.70;99.90;;;;;;5073945;28;20048;-79
2021/12/17 14:38:20;;;;;;;13.57;7.47;;;7.70;99.90;;;;;;5074519;28;20044;-79
2021/12/17 14:40:56;;;;;;;17.90;9.98;;;7.60;99.90;;;;;;5074407;28;20559;-78
2021/12/17 14:43:39;;;;;;;50.75;23.77;;;7.50;99.90;;;;;;5077918;28;20492;-78
2021/12/17 14:46:22;;;;;;;72.63;37.97;;;7.60;99.90;;;;;;5082686;28;20436;-79
2021/12/17 14:49:14;;;;;;;40.13;19.08;;;7.50;99.90;;;;;;5081155;28;20450;-79
2021/12/17 15:02:51;;;;;;;42.95;22.08;;;7.40;99.90;;;;;;5074585;28;20057;-79
2021/12/17 15:05:21;;;;;;;37.88;19.13;;;7.30;99.90;;;;;;5080662;28;20117;-80
2021/12/17 15:07:50;;;;;;;51.05;27.08;;;7.20;99.90;;;;;;5092888;28;20036;-78
2021/12/17 15:10:19;;;;;;;52.17;28.77;;;7.10;99.90;;;;;;5089267;28;20169;-79
2021/12/17 15:12:47;;;;;;;53.70;30.10;;;7.10;99.90;;;;;;5081419;28;20135;-79
2021/12/17 15:15:18;;;;;;;65.15;36.42;;;7.00;99.90;;;;;;5081220;28;20044;-79
2021/12/17 15:17:47;;;;;;;57.58;33.38;;;6.90;99.90;;;;;;5079534;28;20037;-79
2021/12/17 15:20:16;;;;;;;54.33;29.98;;;6.90;99.90;;;;;;5079095;28;20048;-80
2021/12/17 15:22:44;;;;;;;69.30;40.25;;;6.90;99.90;;;;;;5078610;28;20074;-79
2021/12/17 15:25:15;;;;;;;71.97;39.85;;;7.00;99.90;;;;;;5078671;28;20071;-79
2021/12/17 15:27:43;;;;;;;79.13;43.45;;;7.00;99.90;;;;;;5076726;28;20049;-79
2021/12/17 15:30:13;;;;;;;86.72;46.50;;;7.00;99.90;;;;;;5078191;28;20138;-79
2021/12/17 15:32:42;;;;;;;92.03;51.25;;;7.00;99.90;;;;;;5076920;28;20373;-79
2021/12/17 15:35:11;;;;;;;108.05;57.13;;;7.00;99.90;;;;;;5076800;28;20059;-80
2021/12/17 15:37:39;;;;;;;133.82;71.03;;;7.00;99.90;;;;;;5077678;28;20067;-78